Latest Coastal Weather Observations for Coolangatta (QLD)

IDN60701

Issued at 12:12 am EDT Sunday 14 February 2016 (issued every 10 minutes, with the page automatically refreshed every 10 minutes)

About coastal observations | Map of coastal stations | Coastal observations for NSW | Marine services | Other Formats
Station Details ID: 040717 Name: COOLANGATTA Lat: -28.17 Lon: 153.51 Height: 4.0 m
Data from the previous 72 hours. | See also: Recent months at Coolangatta (QLD)
Date/Time
EDT
Temp

°C
Wind Pressure Rain
since 9am
mm
Weather Cloud Vis
km
Sea
Height
m
Swell
Dir
 
Speed
knots
Gust
knots
hPa Trend Height
m
Period
s
Dir
14/12:00am 22.4 SSW 8 11 1010.3 - 1.2 - Partly cloudy 10 - - - -
 
Date/Time
EDT
Temp

°C
Wind Pressure Rain
since 9am
mm
Weather Cloud Vis
km
Sea
Height
m
Swell
Dir
 
Speed
knots
Gust
knots
hPa Trend Height
m
Period
s
Dir
13/11:30pm 22.8 S 9 13 1010.4 - 1.2 - Partly cloudy 10 - - - -
13/11:00pm 22.5 SSW 9 13 1010.5 - 1.2 - Partly cloudy 10 - - - -
13/10:30pm 22.7 SSW 8 13 1010.7 - 1.2 - Partly cloudy 10 - - - -
13/10:00pm 22.6 SSW 9 13 1010.9 - 1.2 - Mostly clear 10 - - - -
13/09:30pm 22.6 SSW 8 11 1011.0 - 1.2 - Partly cloudy 10 - - - -
13/09:00pm 22.8 S 8 11 1011.0 - 1.2 - Partly cloudy 10 - - - -
13/08:30pm 23.1 S 9 13 1010.7 - 1.2 - - 10 - - - -
13/08:00pm 23.6 S 9 14 1010.5 - 1.2 - - 10 - - - -
13/07:30pm 23.9 S 12 18 1010.2 - 1.2 - - 10 - - - -
13/07:00pm 24.4 SSE 13 21 1010.0 - 1.2 - - 10 - - - -
13/06:30pm 25.1 SSE 15 20 1009.8 - 1.2 - - 10 - - - -
13/06:00pm 25.1 SSE 17 23 1009.8 - 1.2 - Partly cloudy 10 - - - -
13/05:30pm 26.2 SE 17 27 1009.8 - 1.2 - Partly cloudy 10 - - - -
13/05:00pm 25.4 SSE 17 24 1009.8 - 1.2 - Partly cloudy 10 - - - -
13/04:35pm 26.7 SSE 18 28 1009.8 - 1.2 - Partly cloudy 10 - - - -
13/04:30pm 26.5 SE 20 28 1009.8 - 1.2 - Partly cloudy 10 - - - -
13/04:00pm 25.8 SE 20 27 1009.9 - 1.2 - Cloudy 10 - - - -
13/03:30pm 26.5 SSE 18 24 1010.1 - 1.2 - Partly cloudy 10 - - - -
13/03:00pm 26.1 SSE 17 23 1010.2 - 1.2 - Partly cloudy 10 - - - -
13/02:41pm 27.2 SSE 17 27 1010.4 - 1.2 - Partly cloudy 10 - - - -
13/02:30pm 27.5 SSE 18 25 1010.6 - 1.2 - Partly cloudy 10 - - - -
13/02:00pm 26.2 SSE 15 20 1011.0 - 1.2 - Partly cloudy 10 - - - -
13/01:30pm 26.5 SE 16 23 1011.3 - 1.2 - Partly cloudy 10 - - - -
13/01:00pm 27.0 SE 16 24 1011.2 - 1.2 Drizzle Cloudy 10 - - - -
13/12:47pm 25.7 SSE 13 16 1011.4 - 1.2 - Partly cloudy 10 - - - -
13/12:30pm 23.3 SSE 14 22 1011.7 - 1.2 - Partly cloudy 5 - - - -
13/12:27pm 23.5 SSE 13 22 1011.8 - 1.2 - Partly cloudy 6 - - - -
13/12:21pm 23.3 SSE 9 13 1011.8 - 1.2 - Partly cloudy 10 - - - -
13/12:00pm 22.1 SSE 15 23 1012.0 - 1.0 - Partly cloudy 4 - - - -
13/11:48am 22.4 S 15 23 1012.0 - 0.8 - Partly cloudy 6 - - - -
13/11:30am 22.9 S 12 20 1011.9 - 0.4 - Partly cloudy 8 - - - -
13/11:00am 24.4 S 11 18 1011.9 - 0.2 - Partly cloudy 10 - - - -
13/10:32am 22.8 S 10 15 1012.1 - 0.2 - Partly cloudy 10 - - - -
13/10:30am 22.8 S 10 15 1012.1 - 0.2 - Partly cloudy 10 - - - -
13/10:20am 22.6 S 10 15 1012.1 - 0.2 - Partly cloudy 6 - - - -
13/10:00am 22.4 S 9 13 1012.0 - 0.0 Showers Mostly cloudy 10 - - - -
13/09:30am 23.2 S 12 18 1012.1 - 0.0 - Partly cloudy 10 - - - -
13/09:00am 23.2 S 9 13 1011.9 - 0.0 - Partly cloudy 10 - - - -
13/08:30am 23.4 S 11 16 1011.5 - 0.0 - Partly cloudy 10 - - - -
13/08:00am 22.7 SSW 11 16 1011.4 - 0.0 - Partly cloudy 10 - - - -
13/07:30am 23.2 SSW 11 16 1011.0 - 0.0 - Partly cloudy 10 - - - -
13/07:00am 22.4 SSW 11 16 1011.1 - 0.0 - Mostly clear 10 - - - -
13/06:30am 22.1 SSW 11 16 1011.0 - 0.0 - - 10 - - - -
13/06:00am 22.1 S 10 14 1011.0 - 0.0 - Partly cloudy 10 - - - -
13/05:30am 22.1 SSW 9 13 1010.9 - 0.0 - - 10 - - - -
13/05:00am 22.2 SSW 10 15 1010.7 - 0.0 - - 10 - - - -
13/04:30am 22.0 S 9 13 1010.8 - 0.0 - - 10 - - - -
13/04:00am 22.3 S 9 14 1011.0 - 0.0 - Partly cloudy 10 - - - -
13/03:30am 22.2 SSW 9 14 1011.1 - 0.0 - - 10 - - - -
13/03:00am 22.3 S 10 15 1011.1 - 0.0 - Partly cloudy 10 - - - -
13/02:30am 22.4 S 9 13 1011.3 - 0.0 - Partly cloudy 10 - - - -
13/02:00am 22.4 S 9 12 1011.6 - 0.0 - Partly cloudy 10 - - - -
13/01:30am 22.3 S 8 12 1012.1 - 0.0 - Partly cloudy 10 - - - -
13/01:00am 22.2 S 8 11 1012.4 - 0.0 - Mostly clear 10 - - - -
13/12:30am 22.2 S 7 10 1012.8 - 0.0 - - 10 - - - -
13/12:00am 22.6 S 9 12 1013.1 - 0.0 - Partly cloudy 10 - - - -
 
Date/Time
EDT
Temp

°C
Wind Pressure Rain
since 9am
mm
Weather Cloud Vis
km
Sea
Height
m
Swell
Dir
 
Speed
knots
Gust
knots
hPa Trend Height
m
Period
s
Dir
12/11:30pm 22.8 SSW 9 12 1013.2 - 0.0 - Partly cloudy 10 - - - -
12/11:00pm 22.8 SSW 8 13 1013.5 - 0.0 - Partly cloudy 10 - - - -
12/10:30pm 22.8 SSW 9 12 1013.5 - 0.0 - Partly cloudy 10 - - - -
12/10:00pm 22.9 S 8 13 1013.6 - 0.0 - Mostly clear 10 - - - -
12/09:30pm 23.4 SSW 9 11 1013.6 - 0.0 - Partly cloudy 10 - - - -
12/09:00pm 23.9 S 9 12 1013.5 - 0.0 - Partly cloudy 10 - - - -
12/08:30pm 24.0 S 10 13 1013.4 - 0.0 - Partly cloudy 10 - - - -
12/08:00pm 24.5 SSE 11 15 1013.4 - 0.0 - Partly cloudy 10 - - - -
12/07:30pm 24.4 SSE 11 18 1013.1 - 0.0 - Partly cloudy 10 - - - -
12/07:00pm 25.3 SSE 14 20 1012.9 - 0.0 - Mostly clear 10 - - - -
12/06:30pm 25.3 SSE 15 22 1012.6 - 0.0 - - 10 - - - -
12/06:00pm 25.5 SE 18 23 1012.4 - 0.0 - Partly cloudy 10 - - - -
12/05:30pm 26.1 SSE 17 24 1012.3 - 0.0 - Partly cloudy 10 - - - -
12/05:00pm 26.0 SSE 17 24 1012.4 - 0.0 - Partly cloudy 10 - - - -
12/04:30pm 26.5 SSE 19 26 1012.3 - 0.0 - Partly cloudy 10 - - - -
12/04:13pm 27.0 SSE 15 25 1012.5 - 0.0 - Partly cloudy 10 - - - -
12/04:00pm 27.4 SSE 16 23 1012.4 - 0.0 - Mostly clear 10 - - - -
12/03:45pm 27.7 SSE 17 27 1012.5 - 0.0 - Partly cloudy 10 - - - -
12/03:30pm 26.7 SSE 19 27 1012.4 - 0.0 - Partly cloudy 10 - - - -
12/03:00pm 26.4 SSE 19 27 1012.4 - 0.0 - Partly cloudy 10 - - - -
12/02:41pm 27.2 SE 18 28 1012.5 - 0.0 - Partly cloudy 10 - - - -
12/02:30pm 27.4 SSE 18 24 1012.5 - 0.0 - Partly cloudy 10 - - - -
12/02:00pm 26.9 SE 17 25 1012.5 - 0.0 - Partly cloudy 10 - - - -
12/01:30pm 26.4 SE 20 26 1012.8 - 0.0 - Partly cloudy 10 - - - -
12/01:00pm 27.8 SE 18 26 1012.9 - 0.0 - Cloudy 10 - - - -
12/12:52pm 28.0 SE 16 26 1013.0 - 0.0 - Partly cloudy 10 - - - -
12/12:30pm 27.8 SSE 18 24 1013.1 - 0.0 - Partly cloudy 10 - - - -
12/12:00pm 27.3 SE 19 25 1013.4 - 0.0 - Partly cloudy 10 - - - -
12/11:30am 26.8 SE 18 24 1013.4 - 0.0 - Partly cloudy 10 - - - -
12/11:00am 27.3 SE 18 23 1013.7 - 0.0 - Partly cloudy 10 - - - -
12/10:30am 27.4 SE 17 23 1013.6 - 0.0 - Partly cloudy 10 - - - -
12/10:00am 25.7 SE 16 21 1013.6 - 0.6 - - 10 - - - -
12/09:30am 25.0 S 8 11 1013.6 - 0.6 - Partly cloudy 10 - - - -
12/09:00am 24.1 S 10 13 1013.8 - 0.6 - Partly cloudy 10 - - - -
12/08:30am 23.7 SSW 8 12 1013.6 - 0.6 - Partly cloudy 10 - - - -
12/08:00am 21.7 SSW 5 7 1013.5 - 0.6 - Partly cloudy 10 - - - -
12/07:30am 21.5 S 6 10 1013.2 - 0.6 - Partly cloudy 10 - - - -
12/07:00am 21.2 SSW 7 11 1013.2 - 0.6 - - 10 - - - -
12/06:30am 21.1 SSW 7 11 1013.0 - 0.6 - - 10 - - - -
12/06:00am 21.2 SSW 8 12 1012.8 - 0.6 - Partly cloudy 10 - - - -
12/05:30am 21.0 SSW 7 9 1012.6 - 0.6 - Partly cloudy 10 - - - -
12/05:00am 21.0 SSW 6 8 1012.5 - 0.6 - Partly cloudy 10 - - - -
12/04:30am 21.2 SSW 7 11 1012.5 - 0.6 - Partly cloudy 10 - - - -
12/04:00am 21.3 SSW 9 14 1012.6 - 0.6 Rain Cloudy 10 - - - -
12/03:30am 21.9 SSW 7 9 1012.6 - 0.0 - Partly cloudy 10 - - - -
12/03:00am 22.0 SSW 7 9 1012.6 - 0.0 - Partly cloudy 10 - - - -
12/02:30am 22.0 SSW 6 9 1012.7 - 0.0 - Partly cloudy 10 - - - -
12/02:00am 22.0 SSW 7 9 1012.8 - 0.0 - Partly cloudy 10 - - - -
12/01:30am 22.1 S 6 8 1012.9 - 0.0 - Partly cloudy 10 - - - -
12/01:00am 22.1 SSW 6 8 1013.2 - 0.0 - Mostly clear 10 - - - -
12/12:30am 22.4 SSW 6 9 1013.4 - 0.0 - Partly cloudy 10 - - - -
12/12:00am 22.7 S 6 8 1013.6 - 0.0 - Partly cloudy 10 - - - -
 
Date/Time
EDT
Temp

°C
Wind Pressure Rain
since 9am
mm
Weather Cloud Vis
km
Sea
Height
m
Swell
Dir
 
Speed
knots
Gust
knots
hPa Trend Height
m
Period
s
Dir
11/11:30pm 24.0 SE 9 13 1013.8 - 0.0 - Partly cloudy 10 - - - -
11/11:00pm 24.3 SE 9 13 1013.8 - 0.0 - Partly cloudy 10 - - - -
11/10:30pm 23.2 SSE 5 10 1013.7 - 0.0 - Partly cloudy 10 - - - -
11/10:00pm 22.8 SSE 5 8 1013.8 - 0.0 - - 10 - - - -
11/09:30pm 23.0 S 5 7 1013.7 - 0.0 - - 10 - - - -
11/09:00pm 23.6 SSE 5 9 1013.5 - 0.0 - Partly cloudy 10 - - - -
11/08:30pm 23.9 SSE 6 9 1013.3 - 0.0 - Partly cloudy 10 - - - -
11/08:00pm 24.4 SSE 7 10 1013.1 - 0.0 - Partly cloudy 10 - - - -
11/07:30pm 24.4 SSE 9 14 1013.0 - 0.0 - Partly cloudy 10 - - - -
11/07:00pm 25.1 SSE 12 16 1012.6 - 0.0 - Partly cloudy 10 - - - -
11/06:30pm 25.6 SSE 12 16 1012.2 - 0.0 - Partly cloudy 10 - - - -
11/06:00pm 26.5 SE 14 21 1011.9 - 0.0 - Partly cloudy 10 - - - -
11/05:30pm 26.3 SSE 14 19 1011.8 - 0.0 - Partly cloudy 10 - - - -
11/05:00pm 27.4 SE 14 20 1011.8 - 0.0 - Partly cloudy 10 - - - -
11/04:30pm 27.1 SSE 14 21 1011.7 - 0.0 - Partly cloudy 10 - - - -
11/04:00pm 27.5 SE 16 21 1011.7 - 0.0 - Partly cloudy 10 - - - -
11/03:30pm 28.0 SE 14 18 1011.8 - 0.0 - Partly cloudy 10 - - - -
11/03:00pm 27.8 SE 15 21 1012.1 - 0.0 - Partly cloudy 10 - - - -
11/02:30pm 27.2 SE 14 19 1012.5 - 0.0 - Partly cloudy 10 - - - -
11/02:00pm 28.0 ESE 16 20 1012.7 - 0.0 - Partly cloudy 10 - - - -
11/01:30pm 27.7 ESE 16 20 1013.0 - 0.0 - Partly cloudy 10 - - - -
11/01:00pm 28.1 SSE 13 17 1013.1 - 0.0 - - 10 - - - -
11/12:30pm 27.3 SE 13 19 1013.1 - 0.0 - Partly cloudy 10 - - - -
11/12:00pm 27.3 SE 13 19 1013.3 - 0.0 - Partly cloudy 10 - - - -
11/11:30am 26.0 SSE 12 17 1013.4 - 0.0 - Partly cloudy 10 - - - -
11/11:00am 25.7 SE 12 16 1013.5 - 0.0 - Partly cloudy 10 - - - -
11/10:30am 25.3 SSE 12 17 1013.4 - 0.0 - Partly cloudy 10 - - - -
11/10:00am 26.2 SSE 9 14 1013.4 - 10.0 - Mostly clear 10 - - - -
11/09:30am 25.3 S 10 14 1013.3 - 10.0 - - 10 - - - -
11/09:00am 24.8 S 8 14 1013.3 - 10.0 - - 10 - - - -
11/08:30am 23.9 SSW 8 12 1013.2 - 10.0 - - 10 - - - -
11/08:00am 23.0 SSW 5 7 1013.1 - 10.0 - Partly cloudy 10 - - - -
11/07:30am 21.4 SSW 5 6 1012.8 - 10.0 - Partly cloudy 10 - - - -
11/07:00am 20.8 SSW 4 6 1012.5 - 10.0 - Partly cloudy 10 - - - -
11/06:30am 20.4 SSW 5 6 1012.2 - 10.0 - - 10 - - - -
11/06:00am 20.4 SSW 4 6 1012.0 - 10.0 - Partly cloudy 10 - - - -
11/05:30am 20.5 SSW 5 6 1011.8 - 10.0 - - 10 - - - -
11/05:00am 20.8 SSW 5 7 1011.6 - 10.0 - - 10 - - - -
11/04:30am 20.5 S 5 6 1011.6 - 10.0 - - 10 - - - -
11/04:00am 20.8 SSW 5 7 1011.8 - 10.0 Drizzle Partly cloudy 10 - - - -
11/03:30am 20.7 SSW 4 5 1012.0 - 10.0 - Partly cloudy 10 - - - -
11/03:00am 20.9 SSW 6 8 1012.2 - 10.0 - Partly cloudy 10 - - - -
11/02:30am 20.6 S 5 6 1012.4 - 10.0 - - 10 - - - -
11/02:00am 20.8 S 4 6 1012.7 - 10.0 - Partly cloudy 10 - - - -
11/01:30am 21.0 SSW 6 8 1012.9 - 10.0 - Partly cloudy 10 - - - -

Other Formats:

Comma delimited format used in spreadsheet applications
http://www.bom.gov.au/fwo/IDN60701/IDN60701.94592.axf

JavaScript Object Notation format (JSON) in row-major order
http://www.bom.gov.au/fwo/IDN60701/IDN60701.94592.json